sensor_id;sensor_type;location;lat;lon;timestamp;temperature;humidity
10702;DHT22;5402;50.004;8.246;2023-03-21T00:02:23;9.20;99.90
10702;DHT22;5402;50.004;8.246;2023-03-21T00:04:50;9.10;99.90
10702;DHT22;5402;50.004;8.246;2023-03-21T00:07:17;9.20;99.90
10702;DHT22;5402;50.004;8.246;2023-03-21T00:09:45;9.20;99.90
10702;DHT22;5402;50.004;8.246;2023-03-21T00:12:11;9.20;99.90
10702;DHT22;5402;50.004;8.246;2023-03-21T00:14:38;9.20;99.90
10702;DHT22;5402;50.004;8.246;2023-03-21T00:17:05;9.20;99.90
10702;DHT22;5402;50.004;8.246;2023-03-21T00:19:32;9.20;99.90
10702;DHT22;5402;50.004;8.246;2023-03-21T00:22:02;9.20;99.90
10702;DHT22;5402;50.004;8.246;2023-03-21T00:24:29;9.20;99.90
10702;DHT22;5402;50.004;8.246;2023-03-21T00:26:57;9.10;99.90
10702;DHT22;5402;50.004;8.246;2023-03-21T00:29:24;9.10;99.90
10702;DHT22;5402;50.004;8.246;2023-03-21T00:31:51;9.10;99.90
10702;DHT22;5402;50.004;8.246;2023-03-21T00:34:17;9.00;99.90
10702;DHT22;5402;50.004;8.246;2023-03-21T00:36:44;9.10;99.90
10702;DHT22;5402;50.004;8.246;2023-03-21T00:39:11;9.10;99.90
10702;DHT22;5402;50.004;8.246;2023-03-21T00:41:38;9.10;99.90
10702;DHT22;5402;50.004;8.246;2023-03-21T00:44:07;9.10;99.90
10702;DHT22;5402;50.004;8.246;2023-03-21T00:46:33;9.00;99.90
10702;DHT22;5402;50.004;8.246;2023-03-21T00:49:01;9.00;99.90
10702;DHT22;5402;50.004;8.246;2023-03-21T00:51:28;9.00;99.90
10702;DHT22;5402;50.004;8.246;2023-03-21T00:53:56;9.00;99.90
10702;DHT22;5402;50.004;8.246;2023-03-21T00:56:23;9.00;99.90
10702;DHT22;5402;50.004;8.246;2023-03-21T00:58:50;9.00;99.90
10702;DHT22;5402;50.004;8.246;2023-03-21T01:01:18;8.90;99.90
10702;DHT22;5402;50.004;8.246;2023-03-21T01:03:45;9.00;99.90
10702;DHT22;5402;50.004;8.246;2023-03-21T01:06:17;8.90;99.90
10702;DHT22;5402;50.004;8.246;2023-03-21T01:08:46;8.80;99.90
10702;DHT22;5402;50.004;8.246;2023-03-21T01:11:15;8.80;99.90
10702;DHT22;5402;50.004;8.246;2023-03-21T01:13:42;8.80;99.90
10702;DHT22;5402;50.004;8.246;2023-03-21T01:16:09;8.80;99.90
10702;DHT22;5402;50.004;8.246;2023-03-21T01:18:39;8.80;99.90
10702;DHT22;5402;50.004;8.246;2023-03-21T01:21:08;8.70;99.90
10702;DHT22;5402;50.004;8.246;2023-03-21T01:23:35;8.60;99.90
10702;DHT22;5402;50.004;8.246;2023-03-21T01:26:02;8.60;99.90
10702;DHT22;5402;50.004;8.246;2023-03-21T01:28:30;8.60;99.90
10702;DHT22;5402;50.004;8.246;2023-03-21T01:31:00;8.60;99.90
10702;DHT22;5402;50.004;8.246;2023-03-21T01:33:27;8.40;99.90
10702;DHT22;5402;50.004;8.246;2023-03-21T01:35:55;8.40;99.90
10702;DHT22;5402;50.004;8.246;2023-03-21T01:38:23;8.30;99.90
10702;DHT22;5402;50.004;8.246;2023-03-21T01:40:50;8.30;99.90
10702;DHT22;5402;50.004;8.246;2023-03-21T01:43:21;8.20;99.90
10702;DHT22;5402;50.004;8.246;2023-03-21T01:46:26;8.20;99.90
10702;DHT22;5402;50.004;8.246;2023-03-21T01:48:56;8.20;99.90
10702;DHT22;5402;50.004;8.246;2023-03-21T01:51:26;8.20;99.90
10702;DHT22;5402;50.004;8.246;2023-03-21T01:53:53;8.20;99.90
10702;DHT22;5402;50.004;8.246;2023-03-21T01:56:24;8.20;99.90
10702;DHT22;5402;50.004;8.246;2023-03-21T01:58:55;8.20;99.90
10702;DHT22;5402;50.004;8.246;2023-03-21T02:01:23;8.20;99.90
10702;DHT22;5402;50.004;8.246;2023-03-21T02:03:51;8.20;99.90
10702;DHT22;5402;50.004;8.246;2023-03-21T02:06:28;8.20;99.90
10702;DHT22;5402;50.004;8.246;2023-03-21T02:09:01;8.10;99.90
10702;DHT22;5402;50.004;8.246;2023-03-21T02:11:29;8.10;99.90
10702;DHT22;5402;50.004;8.246;2023-03-21T02:13:57;8.10;99.90
10702;DHT22;5402;50.004;8.246;2023-03-21T02:16:30;8.10;99.90
10702;DHT22;5402;50.004;8.246;2023-03-21T02:19:10;8.10;99.90
10702;DHT22;5402;50.004;8.246;2023-03-21T02:22:28;8.10;99.90
10702;DHT22;5402;50.004;8.246;2023-03-21T02:27:56;8.00;99.90
10702;DHT22;5402;50.004;8.246;2023-03-21T02:30:37;8.00;99.90
10702;DHT22;5402;50.004;8.246;2023-03-21T02:33:37;7.90;99.90
10702;DHT22;5402;50.004;8.246;2023-03-21T02:36:16;7.90;99.90
10702;DHT22;5402;50.004;8.246;2023-03-21T02:38:52;7.90;99.90
10702;DHT22;5402;50.004;8.246;2023-03-21T02:41:26;8.00;99.90
10702;DHT22;5402;50.004;8.246;2023-03-21T02:43:59;8.00;99.90
10702;DHT22;5402;50.004;8.246;2023-03-21T02:46:31;8.00;99.90
10702;DHT22;5402;50.004;8.246;2023-03-21T02:49:02;8.00;99.90
10702;DHT22;5402;50.004;8.246;2023-03-21T02:51:34;8.20;99.90
10702;DHT22;5402;50.004;8.246;2023-03-21T02:54:05;8.00;99.90
10702;DHT22;5402;50.004;8.246;2023-03-21T02:56:35;8.00;99.90
10702;DHT22;5402;50.004;8.246;2023-03-21T02:59:03;8.00;99.90
10702;DHT22;5402;50.004;8.246;2023-03-21T03:01:30;8.00;99.90
10702;DHT22;5402;50.004;8.246;2023-03-21T03:03:57;8.10;99.90
10702;DHT22;5402;50.004;8.246;2023-03-21T03:06:26;8.10;99.90
10702;DHT22;5402;50.004;8.246;2023-03-21T03:09:06;8.10;99.90
10702;DHT22;5402;50.004;8.246;2023-03-21T03:11:40;8.10;99.90
10702;DHT22;5402;50.004;8.246;2023-03-21T03:14:30;8.10;99.90
10702;DHT22;5402;50.004;8.246;2023-03-21T03:17:13;8.20;99.90
10702;DHT22;5402;50.004;8.246;2023-03-21T03:19:47;8.20;99.90
10702;DHT22;5402;50.004;8.246;2023-03-21T03:22:23;8.20;99.90
10702;DHT22;5402;50.004;8.246;2023-03-21T03:24:57;8.20;99.90
10702;DHT22;5402;50.004;8.246;2023-03-21T03:27:28;8.30;99.90
10702;DHT22;5402;50.004;8.246;2023-03-21T03:29:57;8.30;99.90
10702;DHT22;5402;50.004;8.246;2023-03-21T03:32:28;8.30;99.90
10702;DHT22;5402;50.004;8.246;2023-03-21T03:34:56;8.30;99.90
10702;DHT22;5402;50.004;8.246;2023-03-21T03:37:27;8.30;99.90
10702;DHT22;5402;50.004;8.246;2023-03-21T03:40:00;8.30;99.90
10702;DHT22;5402;50.004;8.246;2023-03-21T03:42:34;8.40;99.90
10702;DHT22;5402;50.004;8.246;2023-03-21T03:45:02;8.40;99.90
10702;DHT22;5402;50.004;8.246;2023-03-21T03:47:34;8.30;99.90
10702;DHT22;5402;50.004;8.246;2023-03-21T03:50:07;8.30;99.90
10702;DHT22;5402;50.004;8.246;2023-03-21T03:52:39;8.30;99.90
10702;DHT22;5402;50.004;8.246;2023-03-21T03:55:12;8.30;99.90
10702;DHT22;5402;50.004;8.246;2023-03-21T03:57:42;8.30;99.90
10702;DHT22;5402;50.004;8.246;2023-03-21T04:00:11;8.40;99.90
10702;DHT22;5402;50.004;8.246;2023-03-21T04:02:39;8.40;99.90
10702;DHT22;5402;50.004;8.246;2023-03-21T04:05:08;8.30;99.90
10702;DHT22;5402;50.004;8.246;2023-03-21T04:07:35;8.30;99.90
10702;DHT22;5402;50.004;8.246;2023-03-21T04:10:02;8.20;99.90
10702;DHT22;5402;50.004;8.246;2023-03-21T04:12:30;8.20;99.90
10702;DHT22;5402;50.004;8.246;2023-03-21T04:14:57;8.10;99.90
10702;DHT22;5402;50.004;8.246;2023-03-21T04:17:24;8.00;99.90
10702;DHT22;5402;50.004;8.246;2023-03-21T04:19:51;7.90;99.90
10702;DHT22;5402;50.004;8.246;2023-03-21T04:22:17;7.90;99.90
10702;DHT22;5402;50.004;8.246;2023-03-21T04:24:45;7.90;99.90
10702;DHT22;5402;50.004;8.246;2023-03-21T04:27:12;7.90;99.90
10702;DHT22;5402;50.004;8.246;2023-03-21T04:29:40;7.90;99.90
10702;DHT22;5402;50.004;8.246;2023-03-21T04:32:07;7.90;99.90
10702;DHT22;5402;50.004;8.246;2023-03-21T04:34:40;7.90;99.90
10702;DHT22;5402;50.004;8.246;2023-03-21T04:37:08;8.00;99.90
10702;DHT22;5402;50.004;8.246;2023-03-21T04:39:36;8.00;99.90
10702;DHT22;5402;50.004;8.246;2023-03-21T04:42:03;8.00;99.90
10702;DHT22;5402;50.004;8.246;2023-03-21T04:44:30;8.00;99.90
10702;DHT22;5402;50.004;8.246;2023-03-21T04:46:58;8.10;99.90
10702;DHT22;5402;50.004;8.246;2023-03-21T04:49:25;8.10;99.90
10702;DHT22;5402;50.004;8.246;2023-03-21T04:51:54;8.10;99.90
10702;DHT22;5402;50.004;8.246;2023-03-21T04:54:21;8.00;99.90
10702;DHT22;5402;50.004;8.246;2023-03-21T04:56:48;8.10;99.90
10702;DHT22;5402;50.004;8.246;2023-03-21T04:59:17;8.10;99.90
10702;DHT22;5402;50.004;8.246;2023-03-21T05:01:44;8.10;99.90
10702;DHT22;5402;50.004;8.246;2023-03-21T05:04:13;8.10;99.90
10702;DHT22;5402;50.004;8.246;2023-03-21T05:06:40;8.10;99.90
10702;DHT22;5402;50.004;8.246;2023-03-21T05:09:08;8.10;99.90
10702;DHT22;5402;50.004;8.246;2023-03-21T05:11:37;8.10;99.90
10702;DHT22;5402;50.004;8.246;2023-03-21T05:14:05;8.10;99.90
10702;DHT22;5402;50.004;8.246;2023-03-21T05:16:31;8.10;99.90
10702;DHT22;5402;50.004;8.246;2023-03-21T05:18:59;8.10;99.90
10702;DHT22;5402;50.004;8.246;2023-03-21T05:21:30;8.10;99.90
10702;DHT22;5402;50.004;8.246;2023-03-21T05:23:59;8.10;99.90
10702;DHT22;5402;50.004;8.246;2023-03-21T05:26:28;8.20;99.90
10702;DHT22;5402;50.004;8.246;2023-03-21T05:28:55;8.20;99.90
10702;DHT22;5402;50.004;8.246;2023-03-21T05:31:22;8.20;99.90
10702;DHT22;5402;50.004;8.246;2023-03-21T05:33:48;8.20;99.90
10702;DHT22;5402;50.004;8.246;2023-03-21T05:36:15;8.20;99.90
10702;DHT22;5402;50.004;8.246;2023-03-21T05:38:43;8.30;99.90
10702;DHT22;5402;50.004;8.246;2023-03-21T05:41:10;8.30;99.90
10702;DHT22;5402;50.004;8.246;2023-03-21T05:43:37;8.30;99.90
10702;DHT22;5402;50.004;8.246;2023-03-21T05:46:05;8.40;99.90
10702;DHT22;5402;50.004;8.246;2023-03-21T05:48:32;8.40;99.90
10702;DHT22;5402;50.004;8.246;2023-03-21T05:50:59;8.40;99.90
10702;DHT22;5402;50.004;8.246;2023-03-21T05:53:25;8.40;99.90
10702;DHT22;5402;50.004;8.246;2023-03-21T05:55:53;8.50;99.90
10702;DHT22;5402;50.004;8.246;2023-03-21T05:58:20;8.50;99.90
10702;DHT22;5402;50.004;8.246;2023-03-21T06:00:47;8.50;99.90
10702;DHT22;5402;50.004;8.246;2023-03-21T06:03:13;8.50;99.90
10702;DHT22;5402;50.004;8.246;2023-03-21T06:05:40;8.50;99.90
10702;DHT22;5402;50.004;8.246;2023-03-21T06:08:07;8.60;99.90
10702;DHT22;5402;50.004;8.246;2023-03-21T06:10:34;8.60;99.90
10702;DHT22;5402;50.004;8.246;2023-03-21T06:13:02;8.60;99.90
10702;DHT22;5402;50.004;8.246;2023-03-21T06:15:29;8.60;99.90
10702;DHT22;5402;50.004;8.246;2023-03-21T06:17:56;8.60;99.90
10702;DHT22;5402;50.004;8.246;2023-03-21T06:20:22;8.60;99.90
10702;DHT22;5402;50.004;8.246;2023-03-21T06:22:51;8.60;99.90
10702;DHT22;5402;50.004;8.246;2023-03-21T06:25:18;8.60;99.90
10702;DHT22;5402;50.004;8.246;2023-03-21T06:27:44;8.70;99.90
10702;DHT22;5402;50.004;8.246;2023-03-21T06:30:14;8.70;99.90
10702;DHT22;5402;50.004;8.246;2023-03-21T06:32:41;8.80;99.90
10702;DHT22;5402;50.004;8.246;2023-03-21T06:35:08;8.90;99.90
10702;DHT22;5402;50.004;8.246;2023-03-21T06:37:35;9.00;99.90
10702;DHT22;5402;50.004;8.246;2023-03-21T06:40:02;9.10;99.90
10702;DHT22;5402;50.004;8.246;2023-03-21T06:42:30;9.10;99.90
10702;DHT22;5402;50.004;8.246;2023-03-21T06:44:57;9.10;99.90
10702;DHT22;5402;50.004;8.246;2023-03-21T06:47:25;9.10;99.90
10702;DHT22;5402;50.004;8.246;2023-03-21T06:49:52;9.20;99.90
10702;DHT22;5402;50.004;8.246;2023-03-21T06:52:21;9.20;99.90
10702;DHT22;5402;50.004;8.246;2023-03-21T06:54:48;9.20;99.90
10702;DHT22;5402;50.004;8.246;2023-03-21T06:57:16;9.20;99.90
10702;DHT22;5402;50.004;8.246;2023-03-21T06:59:45;9.30;99.90
10702;DHT22;5402;50.004;8.246;2023-03-21T07:02:12;9.30;99.90
10702;DHT22;5402;50.004;8.246;2023-03-21T07:04:42;9.30;99.90
10702;DHT22;5402;50.004;8.246;2023-03-21T07:07:09;9.50;99.90
10702;DHT22;5402;50.004;8.246;2023-03-21T07:09:36;9.60;99.90
10702;DHT22;5402;50.004;8.246;2023-03-21T07:12:02;9.70;99.90
10702;DHT22;5402;50.004;8.246;2023-03-21T07:14:29;9.60;99.90
10702;DHT22;5402;50.004;8.246;2023-03-21T07:16:56;9.70;99.90
10702;DHT22;5402;50.004;8.246;2023-03-21T07:19:23;9.70;99.90
10702;DHT22;5402;50.004;8.246;2023-03-21T07:21:52;9.70;99.90
10702;DHT22;5402;50.004;8.246;2023-03-21T07:24:18;9.80;99.90
10702;DHT22;5402;50.004;8.246;2023-03-21T07:26:45;9.90;99.90
10702;DHT22;5402;50.004;8.246;2023-03-21T07:29:12;10.10;99.90
10702;DHT22;5402;50.004;8.246;2023-03-21T07:31:39;10.10;99.90
10702;DHT22;5402;50.004;8.246;2023-03-21T07:34:06;10.30;99.90
10702;DHT22;5402;50.004;8.246;2023-03-21T07:36:33;10.40;99.90
10702;DHT22;5402;50.004;8.246;2023-03-21T07:39:03;10.40;99.90
10702;DHT22;5402;50.004;8.246;2023-03-21T07:41:30;10.50;99.90
10702;DHT22;5402;50.004;8.246;2023-03-21T07:43:58;10.60;99.90
10702;DHT22;5402;50.004;8.246;2023-03-21T07:46:25;10.60;99.90
10702;DHT22;5402;50.004;8.246;2023-03-21T07:48:51;10.60;99.90
10702;DHT22;5402;50.004;8.246;2023-03-21T07:51:18;10.70;99.90
10702;DHT22;5402;50.004;8.246;2023-03-21T07:53:45;10.70;99.90
10702;DHT22;5402;50.004;8.246;2023-03-21T07:56:14;10.70;99.90
10702;DHT22;5402;50.004;8.246;2023-03-21T07:58:41;10.80;99.90
10702;DHT22;5402;50.004;8.246;2023-03-21T08:01:08;10.80;99.90
10702;DHT22;5402;50.004;8.246;2023-03-21T08:03:34;10.90;99.90
10702;DHT22;5402;50.004;8.246;2023-03-21T08:06:02;10.90;99.90
10702;DHT22;5402;50.004;8.246;2023-03-21T08:08:29;11.00;99.90
10702;DHT22;5402;50.004;8.246;2023-03-21T08:10:56;11.10;99.90
10702;DHT22;5402;50.004;8.246;2023-03-21T08:13:24;11.00;99.90
10702;DHT22;5402;50.004;8.246;2023-03-21T08:15:52;11.10;99.90
10702;DHT22;5402;50.004;8.246;2023-03-21T08:18:18;11.20;99.90
10702;DHT22;5402;50.004;8.246;2023-03-21T08:20:49;11.20;99.90
10702;DHT22;5402;50.004;8.246;2023-03-21T08:23:16;11.30;99.90
10702;DHT22;5402;50.004;8.246;2023-03-21T08:25:43;11.40;99.90
10702;DHT22;5402;50.004;8.246;2023-03-21T08:28:09;11.40;99.90
10702;DHT22;5402;50.004;8.246;2023-03-21T08:30:37;11.40;99.90
10702;DHT22;5402;50.004;8.246;2023-03-21T08:33:04;11.30;99.90
10702;DHT22;5402;50.004;8.246;2023-03-21T08:35:32;11.30;99.90
10702;DHT22;5402;50.004;8.246;2023-03-21T08:38:01;11.40;99.90
10702;DHT22;5402;50.004;8.246;2023-03-21T08:40:27;11.40;99.90
10702;DHT22;5402;50.004;8.246;2023-03-21T08:42:54;11.40;99.90
10702;DHT22;5402;50.004;8.246;2023-03-21T08:45:21;11.40;99.90
10702;DHT22;5402;50.004;8.246;2023-03-21T08:47:49;11.50;99.90
10702;DHT22;5402;50.004;8.246;2023-03-21T08:50:18;11.40;99.90
10702;DHT22;5402;50.004;8.246;2023-03-21T08:52:45;11.60;99.90
10702;DHT22;5402;50.004;8.246;2023-03-21T08:55:12;11.60;99.90
10702;DHT22;5402;50.004;8.246;2023-03-21T08:57:40;11.70;99.90
10702;DHT22;5402;50.004;8.246;2023-03-21T09:00:09;11.80;99.90
10702;DHT22;5402;50.004;8.246;2023-03-21T09:02:38;11.70;99.90
10702;DHT22;5402;50.004;8.246;2023-03-21T09:05:08;11.70;99.90
10702;DHT22;5402;50.004;8.246;2023-03-21T09:07:36;11.60;99.90
10702;DHT22;5402;50.004;8.246;2023-03-21T09:10:05;11.60;99.90
10702;DHT22;5402;50.004;8.246;2023-03-21T09:12:32;11.60;99.90
10702;DHT22;5402;50.004;8.246;2023-03-21T09:14:59;11.60;99.90
10702;DHT22;5402;50.004;8.246;2023-03-21T09:17:27;11.60;99.90
10702;DHT22;5402;50.004;8.246;2023-03-21T09:19:53;11.60;99.90
10702;DHT22;5402;50.004;8.246;2023-03-21T09:22:22;11.60;99.90
10702;DHT22;5402;50.004;8.246;2023-03-21T09:24:49;11.60;99.90
10702;DHT22;5402;50.004;8.246;2023-03-21T09:27:16;11.70;99.90
10702;DHT22;5402;50.004;8.246;2023-03-21T09:29:47;11.80;99.90
10702;DHT22;5402;50.004;8.246;2023-03-21T09:32:14;11.80;99.90
10702;DHT22;5402;50.004;8.246;2023-03-21T09:34:42;11.90;99.90
10702;DHT22;5402;50.004;8.246;2023-03-21T09:37:09;12.10;99.90
10702;DHT22;5402;50.004;8.246;2023-03-21T09:39:39;12.30;99.90
10702;DHT22;5402;50.004;8.246;2023-03-21T09:42:16;12.10;99.90
10702;DHT22;5402;50.004;8.246;2023-03-21T09:44:54;12.10;99.90
10702;DHT22;5402;50.004;8.246;2023-03-21T09:47:27;12.10;99.90
10702;DHT22;5402;50.004;8.246;2023-03-21T09:50:00;12.10;99.90
10702;DHT22;5402;50.004;8.246;2023-03-21T09:52:31;12.00;99.90
10702;DHT22;5402;50.004;8.246;2023-03-21T09:55:02;11.90;99.90
10702;DHT22;5402;50.004;8.246;2023-03-21T09:57:44;11.90;99.90
10702;DHT22;5402;50.004;8.246;2023-03-21T10:00:18;11.90;99.90
10702;DHT22;5402;50.004;8.246;2023-03-21T10:02:50;11.60;99.90
10702;DHT22;5402;50.004;8.246;2023-03-21T10:05:19;11.60;99.90
10702;DHT22;5402;50.004;8.246;2023-03-21T10:07:52;11.60;99.90
10702;DHT22;5402;50.004;8.246;2023-03-21T10:10:24;11.60;99.90
10702;DHT22;5402;50.004;8.246;2023-03-21T10:12:54;11.50;99.90
10702;DHT22;5402;50.004;8.246;2023-03-21T10:15:23;11.60;99.90
10702;DHT22;5402;50.004;8.246;2023-03-21T10:17:56;11.70;99.90
10702;DHT22;5402;50.004;8.246;2023-03-21T10:20:25;11.80;99.90
10702;DHT22;5402;50.004;8.246;2023-03-21T10:22:53;11.70;99.90
10702;DHT22;5402;50.004;8.246;2023-03-21T10:25:27;11.70;99.90
10702;DHT22;5402;50.004;8.246;2023-03-21T10:27:55;11.80;99.90
10702;DHT22;5402;50.004;8.246;2023-03-21T10:30:31;11.70;99.90
10702;DHT22;5402;50.004;8.246;2023-03-21T10:33:03;11.60;99.90
10702;DHT22;5402;50.004;8.246;2023-03-21T10:35:30;11.50;99.90
10702;DHT22;5402;50.004;8.246;2023-03-21T10:37:58;11.50;99.90
10702;DHT22;5402;50.004;8.246;2023-03-21T10:40:27;11.50;99.90
10702;DHT22;5402;50.004;8.246;2023-03-21T10:42:54;11.50;99.90
10702;DHT22;5402;50.004;8.246;2023-03-21T10:45:22;11.50;99.90
10702;DHT22;5402;50.004;8.246;2023-03-21T10:47:49;11.50;99.90
10702;DHT22;5402;50.004;8.246;2023-03-21T10:50:18;11.50;99.90
10702;DHT22;5402;50.004;8.246;2023-03-21T10:52:52;11.50;99.90
10702;DHT22;5402;50.004;8.246;2023-03-21T10:55:28;11.40;99.90
10702;DHT22;5402;50.004;8.246;2023-03-21T10:57:59;11.30;99.90
10702;DHT22;5402;50.004;8.246;2023-03-21T11:00:33;11.30;99.90
10702;DHT22;5402;50.004;8.246;2023-03-21T11:03:01;11.40;99.90
10702;DHT22;5402;50.004;8.246;2023-03-21T11:05:35;11.30;99.90
10702;DHT22;5402;50.004;8.246;2023-03-21T11:08:04;11.20;99.90
10702;DHT22;5402;50.004;8.246;2023-03-21T11:10:35;11.30;99.90
10702;DHT22;5402;50.004;8.246;2023-03-21T11:13:06;11.30;99.90
10702;DHT22;5402;50.004;8.246;2023-03-21T11:15:41;11.20;99.90
10702;DHT22;5402;50.004;8.246;2023-03-21T11:18:17;11.30;99.90
10702;DHT22;5402;50.004;8.246;2023-03-21T11:20:49;11.40;99.90
10702;DHT22;5402;50.004;8.246;2023-03-21T11:23:16;11.40;99.90
10702;DHT22;5402;50.004;8.246;2023-03-21T11:25:47;11.30;99.90
10702;DHT22;5402;50.004;8.246;2023-03-21T11:28:16;11.50;99.90
10702;DHT22;5402;50.004;8.246;2023-03-21T11:30:54;11.50;99.90
10702;DHT22;5402;50.004;8.246;2023-03-21T11:33:24;11.60;99.90
10702;DHT22;5402;50.004;8.246;2023-03-21T11:36:03;11.70;99.90
10702;DHT22;5402;50.004;8.246;2023-03-21T11:38:32;11.90;99.90
10702;DHT22;5402;50.004;8.246;2023-03-21T11:41:03;12.00;99.90
10702;DHT22;5402;50.004;8.246;2023-03-21T11:43:31;12.00;99.90
10702;DHT22;5402;50.004;8.246;2023-03-21T11:45:59;12.00;99.90
10702;DHT22;5402;50.004;8.246;2023-03-21T11:48:32;11.90;99.90
10702;DHT22;5402;50.004;8.246;2023-03-21T11:51:06;12.00;99.90
10702;DHT22;5402;50.004;8.246;2023-03-21T11:53:38;12.00;99.90
10702;DHT22;5402;50.004;8.246;2023-03-21T11:56:18;12.00;99.90
10702;DHT22;5402;50.004;8.246;2023-03-21T11:58:56;11.90;99.90
10702;DHT22;5402;50.004;8.246;2023-03-21T12:01:30;12.00;99.90
10702;DHT22;5402;50.004;8.246;2023-03-21T12:04:12;12.10;99.90
10702;DHT22;5402;50.004;8.246;2023-03-21T12:06:48;12.20;99.90
10702;DHT22;5402;50.004;8.246;2023-03-21T12:09:33;12.10;99.90
10702;DHT22;5402;50.004;8.246;2023-03-21T12:12:11;11.90;99.90
10702;DHT22;5402;50.004;8.246;2023-03-21T12:14:48;11.80;99.90
10702;DHT22;5402;50.004;8.246;2023-03-21T12:17:23;11.80;99.90
10702;DHT22;5402;50.004;8.246;2023-03-21T12:20:10;11.80;99.90
10702;DHT22;5402;50.004;8.246;2023-03-21T12:22:46;11.60;99.90
10702;DHT22;5402;50.004;8.246;2023-03-21T12:25:18;11.60;99.90
10702;DHT22;5402;50.004;8.246;2023-03-21T12:27:54;11.50;99.90
10702;DHT22;5402;50.004;8.246;2023-03-21T12:30:31;11.60;99.90
10702;DHT22;5402;50.004;8.246;2023-03-21T12:33:16;11.60;99.90
10702;DHT22;5402;50.004;8.246;2023-03-21T12:35:55;11.50;99.90
10702;DHT22;5402;50.004;8.246;2023-03-21T12:38:24;11.70;99.90
10702;DHT22;5402;50.004;8.246;2023-03-21T12:41:06;11.70;99.90
10702;DHT22;5402;50.004;8.246;2023-03-21T12:43:41;11.70;99.90
10702;DHT22;5402;50.004;8.246;2023-03-21T12:46:14;11.80;99.90
10702;DHT22;5402;50.004;8.246;2023-03-21T12:48:44;11.80;99.90
10702;DHT22;5402;50.004;8.246;2023-03-21T12:51:17;11.90;99.90
10702;DHT22;5402;50.004;8.246;2023-03-21T12:53:50;11.80;99.90
10702;DHT22;5402;50.004;8.246;2023-03-21T12:56:23;11.80;99.90
10702;DHT22;5402;50.004;8.246;2023-03-21T12:58:58;11.60;99.90
10702;DHT22;5402;50.004;8.246;2023-03-21T13:01:27;11.40;99.90
10702;DHT22;5402;50.004;8.246;2023-03-21T13:04:07;11.40;99.90
10702;DHT22;5402;50.004;8.246;2023-03-21T13:06:36;11.40;99.90
10702;DHT22;5402;50.004;8.246;2023-03-21T13:09:08;11.40;99.90
10702;DHT22;5402;50.004;8.246;2023-03-21T13:11:37;11.40;99.90
10702;DHT22;5402;50.004;8.246;2023-03-21T13:14:11;11.30;99.90
10702;DHT22;5402;50.004;8.246;2023-03-21T13:16:42;11.30;99.90
10702;DHT22;5402;50.004;8.246;2023-03-21T13:19:17;11.30;99.90
10702;DHT22;5402;50.004;8.246;2023-03-21T13:21:50;11.30;99.90
10702;DHT22;5402;50.004;8.246;2023-03-21T13:24:24;11.20;99.90
10702;DHT22;5402;50.004;8.246;2023-03-21T13:26:57;11.30;99.90
10702;DHT22;5402;50.004;8.246;2023-03-21T13:29:31;11.40;99.90
10702;DHT22;5402;50.004;8.246;2023-03-21T13:32:08;11.50;99.90
10702;DHT22;5402;50.004;8.246;2023-03-21T13:34:38;11.50;99.90
10702;DHT22;5402;50.004;8.246;2023-03-21T13:37:14;11.60;99.90
10702;DHT22;5402;50.004;8.246;2023-03-21T13:39:44;11.60;99.90
10702;DHT22;5402;50.004;8.246;2023-03-21T13:42:17;11.50;99.90
10702;DHT22;5402;50.004;8.246;2023-03-21T13:44:52;11.50;99.90
10702;DHT22;5402;50.004;8.246;2023-03-21T13:47:29;11.50;99.90
10702;DHT22;5402;50.004;8.246;2023-03-21T13:50:21;11.50;99.90
10702;DHT22;5402;50.004;8.246;2023-03-21T13:53:15;11.50;99.90
10702;DHT22;5402;50.004;8.246;2023-03-21T13:55:46;11.60;99.90
10702;DHT22;5402;50.004;8.246;2023-03-21T13:58:22;11.60;99.90
10702;DHT22;5402;50.004;8.246;2023-03-21T14:01:10;11.60;99.90
10702;DHT22;5402;50.004;8.246;2023-03-21T14:03:39;11.50;99.90
10702;DHT22;5402;50.004;8.246;2023-03-21T14:06:08;11.60;99.90
10702;DHT22;5402;50.004;8.246;2023-03-21T14:08:37;11.60;99.90
10702;DHT22;5402;50.004;8.246;2023-03-21T14:11:09;11.50;99.90
10702;DHT22;5402;50.004;8.246;2023-03-21T14:13:40;11.70;99.90
10702;DHT22;5402;50.004;8.246;2023-03-21T14:16:11;11.70;99.90
10702;DHT22;5402;50.004;8.246;2023-03-21T14:18:42;11.60;99.90
10702;DHT22;5402;50.004;8.246;2023-03-21T14:21:16;11.60;99.90
10702;DHT22;5402;50.004;8.246;2023-03-21T14:23:43;11.60;99.90
10702;DHT22;5402;50.004;8.246;2023-03-21T14:26:11;11.50;99.90
10702;DHT22;5402;50.004;8.246;2023-03-21T14:28:48;11.60;99.90
10702;DHT22;5402;50.004;8.246;2023-03-21T14:31:18;11.50;99.90
10702;DHT22;5402;50.004;8.246;2023-03-21T14:33:47;11.40;99.90
10702;DHT22;5402;50.004;8.246;2023-03-21T14:36:19;11.40;99.90
10702;DHT22;5402;50.004;8.246;2023-03-21T14:38:54;11.40;99.90
10702;DHT22;5402;50.004;8.246;2023-03-21T14:41:24;11.40;99.90
10702;DHT22;5402;50.004;8.246;2023-03-21T14:44:03;11.40;99.90
10702;DHT22;5402;50.004;8.246;2023-03-21T14:46:37;11.50;99.90
10702;DHT22;5402;50.004;8.246;2023-03-21T14:49:13;11.50;99.90
10702;DHT22;5402;50.004;8.246;2023-03-21T14:51:40;11.60;99.90
10702;DHT22;5402;50.004;8.246;2023-03-21T14:54:11;11.70;99.90
10702;DHT22;5402;50.004;8.246;2023-03-21T14:56:39;11.70;99.90
10702;DHT22;5402;50.004;8.246;2023-03-21T14:59:08;11.50;99.90
10702;DHT22;5402;50.004;8.246;2023-03-21T15:01:38;11.50;99.90
10702;DHT22;5402;50.004;8.246;2023-03-21T15:04:05;11.60;99.90
10702;DHT22;5402;50.004;8.246;2023-03-21T15:06:32;11.40;99.90
10702;DHT22;5402;50.004;8.246;2023-03-21T15:09:02;11.60;99.90
10702;DHT22;5402;50.004;8.246;2023-03-21T15:11:31;11.60;99.90
10702;DHT22;5402;50.004;8.246;2023-03-21T15:14:00;11.70;99.90
10702;DHT22;5402;50.004;8.246;2023-03-21T15:16:28;11.60;99.90
10702;DHT22;5402;50.004;8.246;2023-03-21T15:18:57;11.60;99.90
10702;DHT22;5402;50.004;8.246;2023-03-21T15:21:26;11.50;99.90
10702;DHT22;5402;50.004;8.246;2023-03-21T15:23:57;11.50;99.90
10702;DHT22;5402;50.004;8.246;2023-03-21T15:26:24;11.50;99.90
10702;DHT22;5402;50.004;8.246;2023-03-21T15:28:55;11.50;99.90
10702;DHT22;5402;50.004;8.246;2023-03-21T15:31:25;11.50;99.90
10702;DHT22;5402;50.004;8.246;2023-03-21T15:33:54;11.50;99.90
10702;DHT22;5402;50.004;8.246;2023-03-21T15:36:25;11.50;99.90
10702;DHT22;5402;50.004;8.246;2023-03-21T15:38:52;11.50;99.90
10702;DHT22;5402;50.004;8.246;2023-03-21T15:41:27;11.50;99.90
10702;DHT22;5402;50.004;8.246;2023-03-21T15:44:00;11.60;99.90
10702;DHT22;5402;50.004;8.246;2023-03-21T15:46:39;11.60;99.90
10702;DHT22;5402;50.004;8.246;2023-03-21T15:49:08;11.70;99.90
10702;DHT22;5402;50.004;8.246;2023-03-21T15:51:37;11.60;99.90
10702;DHT22;5402;50.004;8.246;2023-03-21T15:54:10;11.60;99.90
10702;DHT22;5402;50.004;8.246;2023-03-21T15:56:39;11.60;99.90
10702;DHT22;5402;50.004;8.246;2023-03-21T15:59:13;11.50;99.90
10702;DHT22;5402;50.004;8.246;2023-03-21T16:01:45;11.50;99.90
10702;DHT22;5402;50.004;8.246;2023-03-21T16:04:12;11.50;99.90
10702;DHT22;5402;50.004;8.246;2023-03-21T16:06:50;11.40;99.90
10702;DHT22;5402;50.004;8.246;2023-03-21T16:09:18;11.40;99.90
10702;DHT22;5402;50.004;8.246;2023-03-21T16:11:49;11.40;99.90
10702;DHT22;5402;50.004;8.246;2023-03-21T16:14:16;11.40;99.90
10702;DHT22;5402;50.004;8.246;2023-03-21T16:16:43;11.40;99.90